sensor_id;sensor_type;location;lat;lon;timestamp;P1;durP1;ratioP1;P2;durP2;ratioP2
31638;SDS011;18248;51.522;7.020;2023-07-20T00:02:49;6.20;;;2.58;;
31638;SDS011;18248;51.522;7.020;2023-07-20T00:05:49;7.33;;;2.83;;
31638;SDS011;18248;51.522;7.020;2023-07-20T00:08:48;6.68;;;2.97;;
31638;SDS011;18248;51.522;7.020;2023-07-20T00:11:50;6.28;;;2.95;;
31638;SDS011;18248;51.522;7.020;2023-07-20T00:14:50;6.00;;;3.30;;
31638;SDS011;18248;51.522;7.020;2023-07-20T00:17:51;9.88;;;3.85;;
31638;SDS011;18248;51.522;7.020;2023-07-20T00:20:50;11.52;;;4.25;;
31638;SDS011;18248;51.522;7.020;2023-07-20T00:23:49;7.70;;;3.17;;
31638;SDS011;18248;51.522;7.020;2023-07-20T00:26:47;10.25;;;4.30;;
31638;SDS011;18248;51.522;7.020;2023-07-20T00:29:46;7.47;;;3.30;;
31638;SDS011;18248;51.522;7.020;2023-07-20T00:32:44;8.88;;;3.35;;
31638;SDS011;18248;51.522;7.020;2023-07-20T00:35:43;11.60;;;4.30;;
31638;SDS011;18248;51.522;7.020;2023-07-20T00:38:42;6.78;;;3.08;;
31638;SDS011;18248;51.522;7.020;2023-07-20T00:41:40;16.45;;;4.88;;
31638;SDS011;18248;51.522;7.020;2023-07-20T00:44:39;8.80;;;3.88;;
31638;SDS011;18248;51.522;7.020;2023-07-20T00:47:38;10.93;;;4.45;;
31638;SDS011;18248;51.522;7.020;2023-07-20T00:50:36;14.63;;;3.90;;
31638;SDS011;18248;51.522;7.020;2023-07-20T00:53:37;13.80;;;4.97;;
31638;SDS011;18248;51.522;7.020;2023-07-20T00:56:36;11.02;;;4.70;;
31638;SDS011;18248;51.522;7.020;2023-07-20T00:59:35;10.40;;;3.42;;
31638;SDS011;18248;51.522;7.020;2023-07-20T01:02:34;5.60;;;3.38;;
31638;SDS011;18248;51.522;7.020;2023-07-20T01:05:48;13.93;;;4.65;;
31638;SDS011;18248;51.522;7.020;2023-07-20T01:12:18;11.13;;;4.15;;
31638;SDS011;18248;51.522;7.020;2023-07-20T01:15:25;8.33;;;4.37;;
31638;SDS011;18248;51.522;7.020;2023-07-20T01:18:24;15.18;;;4.03;;
31638;SDS011;18248;51.522;7.020;2023-07-20T01:21:34;13.02;;;4.57;;
31638;SDS011;18248;51.522;7.020;2023-07-20T01:28:28;9.48;;;3.42;;
31638;SDS011;18248;51.522;7.020;2023-07-20T01:31:21;14.98;;;4.20;;
31638;SDS011;18248;51.522;7.020;2023-07-20T01:34:23;10.57;;;3.88;;
31638;SDS011;18248;51.522;7.020;2023-07-20T01:37:23;10.00;;;3.80;;
31638;SDS011;18248;51.522;7.020;2023-07-20T01:40:25;6.88;;;3.20;;
31638;SDS011;18248;51.522;7.020;2023-07-20T01:43:25;8.15;;;3.90;;
31638;SDS011;18248;51.522;7.020;2023-07-20T01:46:24;5.85;;;3.45;;
31638;SDS011;18248;51.522;7.020;2023-07-20T01:49:22;7.45;;;3.60;;
31638;SDS011;18248;51.522;7.020;2023-07-20T01:52:21;9.27;;;4.13;;
31638;SDS011;18248;51.522;7.020;2023-07-20T01:55:22;11.85;;;4.82;;
31638;SDS011;18248;51.522;7.020;2023-07-20T01:58:20;13.55;;;4.78;;
31638;SDS011;18248;51.522;7.020;2023-07-20T02:01:20;8.70;;;4.47;;
31638;SDS011;18248;51.522;7.020;2023-07-20T02:04:19;12.80;;;4.60;;
31638;SDS011;18248;51.522;7.020;2023-07-20T02:07:17;16.20;;;5.03;;
31638;SDS011;18248;51.522;7.020;2023-07-20T02:10:16;11.93;;;4.75;;
31638;SDS011;18248;51.522;7.020;2023-07-20T02:13:16;13.68;;;5.63;;
31638;SDS011;18248;51.522;7.020;2023-07-20T02:16:15;17.83;;;4.75;;
31638;SDS011;18248;51.522;7.020;2023-07-20T02:19:14;13.90;;;6.78;;
31638;SDS011;18248;51.522;7.020;2023-07-20T02:22:12;18.10;;;7.30;;
31638;SDS011;18248;51.522;7.020;2023-07-20T02:25:11;14.95;;;6.82;;
31638;SDS011;18248;51.522;7.020;2023-07-20T02:28:11;17.15;;;7.43;;
31638;SDS011;18248;51.522;7.020;2023-07-20T02:31:11;14.25;;;6.28;;
31638;SDS011;18248;51.522;7.020;2023-07-20T02:34:10;13.60;;;6.63;;
31638;SDS011;18248;51.522;7.020;2023-07-20T02:37:09;17.45;;;7.82;;
31638;SDS011;18248;51.522;7.020;2023-07-20T02:40:11;15.52;;;7.93;;
31638;SDS011;18248;51.522;7.020;2023-07-20T02:43:09;15.70;;;7.53;;
31638;SDS011;18248;51.522;7.020;2023-07-20T02:46:08;15.80;;;7.85;;
31638;SDS011;18248;51.522;7.020;2023-07-20T02:49:06;15.93;;;7.13;;
31638;SDS011;18248;51.522;7.020;2023-07-20T02:52:05;22.40;;;8.45;;
31638;SDS011;18248;51.522;7.020;2023-07-20T02:55:04;16.70;;;7.72;;
31638;SDS011;18248;51.522;7.020;2023-07-20T02:58:03;19.52;;;9.13;;
31638;SDS011;18248;51.522;7.020;2023-07-20T03:01:02;18.48;;;9.25;;
31638;SDS011;18248;51.522;7.020;2023-07-20T03:04:01;15.00;;;8.25;;
31638;SDS011;18248;51.522;7.020;2023-07-20T03:07:00;15.45;;;8.40;;
31638;SDS011;18248;51.522;7.020;2023-07-20T03:09:58;15.75;;;9.50;;
31638;SDS011;18248;51.522;7.020;2023-07-20T03:12:57;16.15;;;10.18;;
31638;SDS011;18248;51.522;7.020;2023-07-20T03:15:56;21.00;;;9.88;;
31638;SDS011;18248;51.522;7.020;2023-07-20T03:18:54;22.20;;;11.90;;
31638;SDS011;18248;51.522;7.020;2023-07-20T03:21:53;15.35;;;9.85;;
31638;SDS011;18248;51.522;7.020;2023-07-20T03:24:51;18.70;;;11.90;;
31638;SDS011;18248;51.522;7.020;2023-07-20T03:27:50;15.13;;;10.10;;
31638;SDS011;18248;51.522;7.020;2023-07-20T03:30:58;19.05;;;11.52;;
31638;SDS011;18248;51.522;7.020;2023-07-20T03:33:56;16.15;;;10.13;;
31638;SDS011;18248;51.522;7.020;2023-07-20T03:36:55;15.02;;;10.18;;
31638;SDS011;18248;51.522;7.020;2023-07-20T03:39:53;17.20;;;12.60;;
31638;SDS011;18248;51.522;7.020;2023-07-20T03:42:52;17.67;;;12.25;;
31638;SDS011;18248;51.522;7.020;2023-07-20T03:45:51;20.75;;;12.57;;
31638;SDS011;18248;51.522;7.020;2023-07-20T03:48:50;19.27;;;12.98;;
31638;SDS011;18248;51.522;7.020;2023-07-20T03:51:48;22.80;;;14.93;;
31638;SDS011;18248;51.522;7.020;2023-07-20T03:54:47;25.38;;;16.38;;
31638;SDS011;18248;51.522;7.020;2023-07-20T03:57:45;25.55;;;15.85;;
31638;SDS011;18248;51.522;7.020;2023-07-20T04:00:47;20.65;;;15.85;;
31638;SDS011;18248;51.522;7.020;2023-07-20T04:03:48;21.52;;;15.25;;
31638;SDS011;18248;51.522;7.020;2023-07-20T04:06:46;20.08;;;13.68;;
31638;SDS011;18248;51.522;7.020;2023-07-20T04:09:45;19.33;;;13.50;;
31638;SDS011;18248;51.522;7.020;2023-07-20T04:12:44;23.35;;;15.70;;
31638;SDS011;18248;51.522;7.020;2023-07-20T04:15:43;25.23;;;15.40;;
31638;SDS011;18248;51.522;7.020;2023-07-20T04:18:41;17.05;;;12.70;;
31638;SDS011;18248;51.522;7.020;2023-07-20T04:21:40;17.88;;;12.88;;
31638;SDS011;18248;51.522;7.020;2023-07-20T04:24:39;16.65;;;11.90;;
31638;SDS011;18248;51.522;7.020;2023-07-20T04:27:38;19.55;;;12.68;;
31638;SDS011;18248;51.522;7.020;2023-07-20T04:30:37;16.67;;;10.77;;
31638;SDS011;18248;51.522;7.020;2023-07-20T04:33:38;13.93;;;10.65;;
31638;SDS011;18248;51.522;7.020;2023-07-20T04:36:38;16.73;;;11.00;;
31638;SDS011;18248;51.522;7.020;2023-07-20T04:39:36;17.42;;;11.32;;
31638;SDS011;18248;51.522;7.020;2023-07-20T04:42:35;15.52;;;11.20;;
31638;SDS011;18248;51.522;7.020;2023-07-20T04:45:34;13.75;;;10.65;;
31638;SDS011;18248;51.522;7.020;2023-07-20T04:48:32;17.05;;;11.98;;
31638;SDS011;18248;51.522;7.020;2023-07-20T04:51:31;14.20;;;10.77;;
31638;SDS011;18248;51.522;7.020;2023-07-20T04:54:29;21.85;;;11.95;;
31638;SDS011;18248;51.522;7.020;2023-07-20T04:57:28;15.15;;;10.50;;
31638;SDS011;18248;51.522;7.020;2023-07-20T05:00:26;13.68;;;9.82;;
31638;SDS011;18248;51.522;7.020;2023-07-20T05:03:25;17.30;;;9.57;;
31638;SDS011;18248;51.522;7.020;2023-07-20T05:06:24;17.20;;;10.45;;
31638;SDS011;18248;51.522;7.020;2023-07-20T05:09:23;16.48;;;8.70;;
31638;SDS011;18248;51.522;7.020;2023-07-20T05:12:22;10.85;;;7.57;;
31638;SDS011;18248;51.522;7.020;2023-07-20T05:15:21;11.35;;;7.78;;
31638;SDS011;18248;51.522;7.020;2023-07-20T05:18:20;9.88;;;6.85;;
31638;SDS011;18248;51.522;7.020;2023-07-20T05:21:18;10.20;;;7.65;;
31638;SDS011;18248;51.522;7.020;2023-07-20T05:24:17;12.30;;;6.95;;
31638;SDS011;18248;51.522;7.020;2023-07-20T05:27:16;9.27;;;7.65;;
31638;SDS011;18248;51.522;7.020;2023-07-20T05:30:14;9.55;;;7.30;;
31638;SDS011;18248;51.522;7.020;2023-07-20T05:33:13;9.15;;;7.28;;
31638;SDS011;18248;51.522;7.020;2023-07-20T05:36:11;9.38;;;7.38;;
31638;SDS011;18248;51.522;7.020;2023-07-20T05:39:11;7.88;;;6.45;;
31638;SDS011;18248;51.522;7.020;2023-07-20T05:42:10;9.80;;;6.95;;
31638;SDS011;18248;51.522;7.020;2023-07-20T05:45:09;12.20;;;7.38;;
31638;SDS011;18248;51.522;7.020;2023-07-20T05:48:08;8.32;;;6.60;;
31638;SDS011;18248;51.522;7.020;2023-07-20T05:51:09;8.05;;;6.03;;
31638;SDS011;18248;51.522;7.020;2023-07-20T05:54:08;10.38;;;5.32;;
31638;SDS011;18248;51.522;7.020;2023-07-20T05:57:07;6.70;;;5.38;;
31638;SDS011;18248;51.522;7.020;2023-07-20T06:00:06;5.55;;;5.05;;
31638;SDS011;18248;51.522;7.020;2023-07-20T06:03:07;5.43;;;4.57;;
31638;SDS011;18248;51.522;7.020;2023-07-20T06:06:05;8.85;;;4.22;;
31638;SDS011;18248;51.522;7.020;2023-07-20T06:09:04;7.57;;;4.47;;
31638;SDS011;18248;51.522;7.020;2023-07-20T06:12:05;6.82;;;3.67;;
31638;SDS011;18248;51.522;7.020;2023-07-20T06:15:04;6.72;;;4.13;;
31638;SDS011;18248;51.522;7.020;2023-07-20T06:18:04;7.40;;;4.07;;
31638;SDS011;18248;51.522;7.020;2023-07-20T06:21:03;7.85;;;3.85;;
31638;SDS011;18248;51.522;7.020;2023-07-20T06:24:01;5.78;;;3.67;;
31638;SDS011;18248;51.522;7.020;2023-07-20T06:27:00;5.20;;;2.88;;
31638;SDS011;18248;51.522;7.020;2023-07-20T06:29:59;3.95;;;2.40;;
31638;SDS011;18248;51.522;7.020;2023-07-20T06:32:57;4.75;;;2.10;;
31638;SDS011;18248;51.522;7.020;2023-07-20T06:35:56;2.65;;;1.55;;
31638;SDS011;18248;51.522;7.020;2023-07-20T06:38:55;1.88;;;1.50;;
31638;SDS011;18248;51.522;7.020;2023-07-20T06:41:54;4.88;;;0.98;;
31638;SDS011;18248;51.522;7.020;2023-07-20T06:44:53;2.08;;;1.10;;
31638;SDS011;18248;51.522;7.020;2023-07-20T06:47:51;0.60;;;0.60;;
31638;SDS011;18248;51.522;7.020;2023-07-20T06:50:50;1.10;;;0.80;;
31638;SDS011;18248;51.522;7.020;2023-07-20T06:53:48;1.33;;;0.70;;
31638;SDS011;18248;51.522;7.020;2023-07-20T06:56:47;1.33;;;0.55;;
31638;SDS011;18248;51.522;7.020;2023-07-20T06:59:45;1.13;;;0.65;;
31638;SDS011;18248;51.522;7.020;2023-07-20T07:02:44;1.23;;;0.70;;
31638;SDS011;18248;51.522;7.020;2023-07-20T07:05:43;0.77;;;0.65;;
31638;SDS011;18248;51.522;7.020;2023-07-20T07:08:43;1.48;;;0.82;;
31638;SDS011;18248;51.522;7.020;2023-07-20T07:11:44;1.17;;;0.70;;
31638;SDS011;18248;51.522;7.020;2023-07-20T07:14:42;1.83;;;1.05;;
31638;SDS011;18248;51.522;7.020;2023-07-20T07:17:41;3.00;;;1.30;;
31638;SDS011;18248;51.522;7.020;2023-07-20T07:20:41;2.28;;;1.90;;
31638;SDS011;18248;51.522;7.020;2023-07-20T07:23:40;5.70;;;1.42;;
31638;SDS011;18248;51.522;7.020;2023-07-20T07:26:38;3.60;;;1.73;;
31638;SDS011;18248;51.522;7.020;2023-07-20T07:29:37;3.75;;;1.80;;
31638;SDS011;18248;51.522;7.020;2023-07-20T07:32:35;2.25;;;1.60;;
31638;SDS011;18248;51.522;7.020;2023-07-20T07:35:34;2.33;;;1.65;;
31638;SDS011;18248;51.522;7.020;2023-07-20T07:38:34;3.35;;;1.58;;
31638;SDS011;18248;51.522;7.020;2023-07-20T07:41:32;4.75;;;1.42;;
31638;SDS011;18248;51.522;7.020;2023-07-20T07:44:32;4.30;;;1.48;;
31638;SDS011;18248;51.522;7.020;2023-07-20T07:47:31;3.72;;;1.70;;
31638;SDS011;18248;51.522;7.020;2023-07-20T07:50:29;2.80;;;1.50;;
31638;SDS011;18248;51.522;7.020;2023-07-20T07:53:29;2.10;;;1.30;;
31638;SDS011;18248;51.522;7.020;2023-07-20T07:56:28;4.10;;;1.25;;
31638;SDS011;18248;51.522;7.020;2023-07-20T07:59:26;3.00;;;1.40;;
31638;SDS011;18248;51.522;7.020;2023-07-20T08:02:25;4.60;;;1.25;;
31638;SDS011;18248;51.522;7.020;2023-07-20T08:05:25;1.70;;;1.20;;
31638;SDS011;18248;51.522;7.020;2023-07-20T08:08:24;3.33;;;1.00;;
31638;SDS011;18248;51.522;7.020;2023-07-20T08:11:24;3.70;;;0.90;;
31638;SDS011;18248;51.522;7.020;2023-07-20T08:14:22;2.67;;;0.77;;
31638;SDS011;18248;51.522;7.020;2023-07-20T08:17:21;0.63;;;0.63;;
31638;SDS011;18248;51.522;7.020;2023-07-20T08:26:48;0.88;;;0.50;;
31638;SDS011;18248;51.522;7.020;2023-07-20T08:29:47;1.83;;;0.68;;
31638;SDS011;18248;51.522;7.020;2023-07-20T08:32:46;3.05;;;0.75;;
31638;SDS011;18248;51.522;7.020;2023-07-20T08:35:44;1.80;;;0.85;;
31638;SDS011;18248;51.522;7.020;2023-07-20T08:38:44;2.13;;;1.02;;
31638;SDS011;18248;51.522;7.020;2023-07-20T08:41:43;1.58;;;0.70;;
31638;SDS011;18248;51.522;7.020;2023-07-20T08:44:42;1.90;;;0.90;;
31638;SDS011;18248;51.522;7.020;2023-07-20T08:47:42;1.08;;;0.85;;
31638;SDS011;18248;51.522;7.020;2023-07-20T08:50:42;3.58;;;0.90;;
31638;SDS011;18248;51.522;7.020;2023-07-20T08:53:41;2.45;;;1.38;;
31638;SDS011;18248;51.522;7.020;2023-07-20T08:56:43;1.65;;;0.98;;
31638;SDS011;18248;51.522;7.020;2023-07-20T08:59:43;3.17;;;1.08;;
31638;SDS011;18248;51.522;7.020;2023-07-20T09:02:51;2.47;;;0.80;;
31638;SDS011;18248;51.522;7.020;2023-07-20T09:05:51;3.53;;;1.02;;
31638;SDS011;18248;51.522;7.020;2023-07-20T09:08:50;3.28;;;0.60;;
31638;SDS011;18248;51.522;7.020;2023-07-20T09:11:49;1.45;;;0.80;;
31638;SDS011;18248;51.522;7.020;2023-07-20T09:14:47;1.52;;;0.70;;
31638;SDS011;18248;51.522;7.020;2023-07-20T09:17:46;3.63;;;0.80;;
31638;SDS011;18248;51.522;7.020;2023-07-20T09:20:46;1.90;;;0.70;;
31638;SDS011;18248;51.522;7.020;2023-07-20T09:23:45;2.20;;;0.70;;
31638;SDS011;18248;51.522;7.020;2023-07-20T09:26:44;1.73;;;0.80;;
31638;SDS011;18248;51.522;7.020;2023-07-20T09:29:49;1.60;;;0.80;;
31638;SDS011;18248;51.522;7.020;2023-07-20T09:32:49;3.92;;;0.82;;
31638;SDS011;18248;51.522;7.020;2023-07-20T09:35:51;0.77;;;0.50;;
31638;SDS011;18248;51.522;7.020;2023-07-20T09:38:49;1.65;;;0.60;;
31638;SDS011;18248;51.522;7.020;2023-07-20T09:41:48;1.33;;;0.40;;
31638;SDS011;18248;51.522;7.020;2023-07-20T09:44:47;0.50;;;0.45;;
31638;SDS011;18248;51.522;7.020;2023-07-20T09:47:46;2.80;;;0.40;;
31638;SDS011;18248;51.522;7.020;2023-07-20T09:50:49;0.75;;;0.60;;
31638;SDS011;18248;51.522;7.020;2023-07-20T09:53:49;2.20;;;0.70;;
31638;SDS011;18248;51.522;7.020;2023-07-20T09:56:50;1.23;;;0.50;;
31638;SDS011;18248;51.522;7.020;2023-07-20T09:59:50;2.55;;;0.70;;
31638;SDS011;18248;51.522;7.020;2023-07-20T10:02:49;5.47;;;3.78;;
31638;SDS011;18248;51.522;7.020;2023-07-20T10:05:57;5.00;;;4.53;;
31638;SDS011;18248;51.522;7.020;2023-07-20T10:09:01;3.08;;;1.45;;
31638;SDS011;18248;51.522;7.020;2023-07-20T10:12:01;3.20;;;1.58;;
31638;SDS011;18248;51.522;7.020;2023-07-20T10:18:30;2.38;;;0.57;;
31638;SDS011;18248;51.522;7.020;2023-07-20T10:21:51;1.95;;;0.50;;
31638;SDS011;18248;51.522;7.020;2023-07-20T10:24:58;1.48;;;0.60;;
31638;SDS011;18248;51.522;7.020;2023-07-20T10:27:57;1.50;;;0.40;;
31638;SDS011;18248;51.522;7.020;2023-07-20T10:30:56;1.35;;;0.52;;
31638;SDS011;18248;51.522;7.020;2023-07-20T10:33:56;0.80;;;0.40;;
31638;SDS011;18248;51.522;7.020;2023-07-20T10:36:55;1.10;;;0.50;;
31638;SDS011;18248;51.522;7.020;2023-07-20T10:39:55;0.90;;;0.50;;
31638;SDS011;18248;51.522;7.020;2023-07-20T10:46:01;1.38;;;0.52;;
31638;SDS011;18248;51.522;7.020;2023-07-20T10:49:00;1.17;;;0.47;;
31638;SDS011;18248;51.522;7.020;2023-07-20T10:52:03;1.30;;;0.50;;
31638;SDS011;18248;51.522;7.020;2023-07-20T10:58:08;0.60;;;0.40;;
31638;SDS011;18248;51.522;7.020;2023-07-20T11:01:10;0.65;;;0.50;;
31638;SDS011;18248;51.522;7.020;2023-07-20T11:04:11;0.70;;;0.30;;
31638;SDS011;18248;51.522;7.020;2023-07-20T11:07:10;2.67;;;0.70;;
31638;SDS011;18248;51.522;7.020;2023-07-20T11:10:13;1.02;;;0.50;;
31638;SDS011;18248;51.522;7.020;2023-07-20T11:16:20;2.03;;;0.65;;
31638;SDS011;18248;51.522;7.020;2023-07-20T11:19:42;0.95;;;0.40;;
31638;SDS011;18248;51.522;7.020;2023-07-20T11:22:41;1.55;;;0.60;;
31638;SDS011;18248;51.522;7.020;2023-07-20T11:25:40;2.65;;;0.80;;
31638;SDS011;18248;51.522;7.020;2023-07-20T11:28:38;2.60;;;0.70;;
31638;SDS011;18248;51.522;7.020;2023-07-20T11:31:40;1.95;;;0.73;;
31638;SDS011;18248;51.522;7.020;2023-07-20T11:34:39;2.20;;;0.60;;
31638;SDS011;18248;51.522;7.020;2023-07-20T11:37:39;0.90;;;0.40;;
31638;SDS011;18248;51.522;7.020;2023-07-20T11:40:45;0.57;;;0.40;;
31638;SDS011;18248;51.522;7.020;2023-07-20T11:43:44;1.48;;;0.52;;
31638;SDS011;18248;51.522;7.020;2023-07-20T11:46:43;2.30;;;0.70;;
31638;SDS011;18248;51.522;7.020;2023-07-20T11:49:43;1.13;;;0.50;;
31638;SDS011;18248;51.522;7.020;2023-07-20T11:52:42;2.28;;;0.50;;
31638;SDS011;18248;51.522;7.020;2023-07-20T11:55:43;0.57;;;0.50;;
31638;SDS011;18248;51.522;7.020;2023-07-20T11:58:43;4.30;;;0.80;;
31638;SDS011;18248;51.522;7.020;2023-07-20T12:01:43;1.13;;;0.65;;
31638;SDS011;18248;51.522;7.020;2023-07-20T12:04:43;0.50;;;0.40;;
31638;SDS011;18248;51.522;7.020;2023-07-20T12:07:41;1.33;;;0.50;;
31638;SDS011;18248;51.522;7.020;2023-07-20T12:10:41;2.22;;;1.15;;
31638;SDS011;18248;51.522;7.020;2023-07-20T12:13:43;3.60;;;0.60;;
31638;SDS011;18248;51.522;7.020;2023-07-20T12:16:51;1.13;;;0.43;;
31638;SDS011;18248;51.522;7.020;2023-07-20T12:19:56;1.08;;;0.60;;
31638;SDS011;18248;51.522;7.020;2023-07-20T12:22:56;9.15;;;0.60;;
31638;SDS011;18248;51.522;7.020;2023-07-20T12:25:59;0.65;;;0.40;;
31638;SDS011;18248;51.522;7.020;2023-07-20T12:28:58;0.82;;;0.28;;
31638;SDS011;18248;51.522;7.020;2023-07-20T12:31:57;3.45;;;0.63;;
31638;SDS011;18248;51.522;7.020;2023-07-20T12:34:56;2.63;;;0.55;;
31638;SDS011;18248;51.522;7.020;2023-07-20T12:37:54;0.93;;;0.40;;
31638;SDS011;18248;51.522;7.020;2023-07-20T12:40:53;0.82;;;0.47;;
31638;SDS011;18248;51.522;7.020;2023-07-20T12:43:54;2.00;;;1.35;;
31638;SDS011;18248;51.522;7.020;2023-07-20T12:46:55;0.70;;;0.35;;
31638;SDS011;18248;51.522;7.020;2023-07-20T12:49:54;1.60;;;0.60;;
31638;SDS011;18248;51.522;7.020;2023-07-20T12:52:53;1.45;;;0.70;;
31638;SDS011;18248;51.522;7.020;2023-07-20T12:55:52;1.65;;;0.50;;
31638;SDS011;18248;51.522;7.020;2023-07-20T12:58:51;1.45;;;0.57;;
31638;SDS011;18248;51.522;7.020;2023-07-20T13:01:49;1.42;;;0.57;;
31638;SDS011;18248;51.522;7.020;2023-07-20T13:04:48;0.82;;;0.30;;
31638;SDS011;18248;51.522;7.020;2023-07-20T13:07:46;3.25;;;0.52;;
31638;SDS011;18248;51.522;7.020;2023-07-20T13:10:45;1.63;;;0.70;;
31638;SDS011;18248;51.522;7.020;2023-07-20T13:13:43;1.23;;;0.63;;
31638;SDS011;18248;51.522;7.020;2023-07-20T13:16:44;1.15;;;0.60;;
31638;SDS011;18248;51.522;7.020;2023-07-20T13:19:42;2.72;;;0.80;;
31638;SDS011;18248;51.522;7.020;2023-07-20T13:22:41;1.48;;;0.57;;
31638;SDS011;18248;51.522;7.020;2023-07-20T13:25:39;1.63;;;0.68;;
31638;SDS011;18248;51.522;7.020;2023-07-20T13:28:39;1.15;;;0.57;;
31638;SDS011;18248;51.522;7.020;2023-07-20T13:31:38;1.50;;;0.57;;
31638;SDS011;18248;51.522;7.020;2023-07-20T13:34:36;0.60;;;0.40;;
31638;SDS011;18248;51.522;7.020;2023-07-20T13:37:35;2.20;;;0.50;;
31638;SDS011;18248;51.522;7.020;2023-07-20T13:40:33;6.28;;;0.70;;
31638;SDS011;18248;51.522;7.020;2023-07-20T13:43:33;1.02;;;0.50;;
31638;SDS011;18248;51.522;7.020;2023-07-20T13:46:31;2.65;;;0.52;;
31638;SDS011;18248;51.522;7.020;2023-07-20T13:49:31;1.60;;;0.60;;
31638;SDS011;18248;51.522;7.020;2023-07-20T13:52:30;1.95;;;0.60;;
31638;SDS011;18248;51.522;7.020;2023-07-20T13:55:28;0.95;;;0.57;;
31638;SDS011;18248;51.522;7.020;2023-07-20T13:58:29;2.70;;;0.75;;
31638;SDS011;18248;51.522;7.020;2023-07-20T14:01:29;2.13;;;0.80;;
31638;SDS011;18248;51.522;7.020;2023-07-20T14:04:29;1.23;;;0.45;;
31638;SDS011;18248;51.522;7.020;2023-07-20T14:07:28;0.73;;;0.40;;
31638;SDS011;18248;51.522;7.020;2023-07-20T14:10:26;0.82;;;0.50;;
31638;SDS011;18248;51.522;7.020;2023-07-20T14:13:25;0.40;;;0.38;;
31638;SDS011;18248;51.522;7.020;2023-07-20T14:16:23;3.88;;;0.47;;
31638;SDS011;18248;51.522;7.020;2023-07-20T14:19:22;2.33;;;0.70;;
31638;SDS011;18248;51.522;7.020;2023-07-20T14:22:21;1.95;;;0.70;;
31638;SDS011;18248;51.522;7.020;2023-07-20T14:25:19;1.50;;;0.60;;
31638;SDS011;18248;51.522;7.020;2023-07-20T14:28:19;2.05;;;0.80;;
31638;SDS011;18248;51.522;7.020;2023-07-20T14:31:19;1.70;;;0.90;;
31638;SDS011;18248;51.522;7.020;2023-07-20T14:34:17;2.28;;;1.10;;
31638;SDS011;18248;51.522;7.020;2023-07-20T14:37:17;1.35;;;0.85;;
31638;SDS011;18248;51.522;7.020;2023-07-20T14:40:17;2.40;;;1.00;;
31638;SDS011;18248;51.522;7.020;2023-07-20T14:43:17;1.50;;;0.70;;
31638;SDS011;18248;51.522;7.020;2023-07-20T14:46:16;2.72;;;1.08;;
31638;SDS011;18248;51.522;7.020;2023-07-20T14:49:15;1.83;;;1.02;;
31638;SDS011;18248;51.522;7.020;2023-07-20T14:52:14;1.92;;;1.15;;
31638;SDS011;18248;51.522;7.020;2023-07-20T14:55:13;1.80;;;1.00;;
31638;SDS011;18248;51.522;7.020;2023-07-20T14:58:11;2.35;;;1.27;;
31638;SDS011;18248;51.522;7.020;2023-07-20T15:01:10;1.02;;;0.80;;
31638;SDS011;18248;51.522;7.020;2023-07-20T15:04:09;2.08;;;0.85;;
31638;SDS011;18248;51.522;7.020;2023-07-20T15:07:07;2.30;;;1.00;;
31638;SDS011;18248;51.522;7.020;2023-07-20T15:10:06;1.73;;;0.63;;
31638;SDS011;18248;51.522;7.020;2023-07-20T15:13:05;7.13;;;0.70;;
31638;SDS011;18248;51.522;7.020;2023-07-20T15:16:03;1.50;;;0.70;;
31638;SDS011;18248;51.522;7.020;2023-07-20T15:19:02;3.47;;;0.40;;
31638;SDS011;18248;51.522;7.020;2023-07-20T15:22:03;4.70;;;0.73;;
31638;SDS011;18248;51.522;7.020;2023-07-20T15:25:03;1.70;;;0.90;;
31638;SDS011;18248;51.522;7.020;2023-07-20T15:28:02;1.42;;;0.55;;
31638;SDS011;18248;51.522;7.020;2023-07-20T15:31:01;1.88;;;0.52;;
31638;SDS011;18248;51.522;7.020;2023-07-20T15:34:01;1.02;;;0.40;;
31638;SDS011;18248;51.522;7.020;2023-07-20T15:36:59;3.00;;;1.10;;
31638;SDS011;18248;51.522;7.020;2023-07-20T15:39:58;4.03;;;1.08;;
31638;SDS011;18248;51.522;7.020;2023-07-20T15:42:58;1.67;;;0.75;;
31638;SDS011;18248;51.522;7.020;2023-07-20T15:46:35;2.80;;;0.60;;
31638;SDS011;18248;51.522;7.020;2023-07-20T15:49:38;1.38;;;0.95;;
31638;SDS011;18248;51.522;7.020;2023-07-20T15:52:38;2.20;;;0.70;;
31638;SDS011;18248;51.522;7.020;2023-07-20T15:55:37;1.35;;;0.80;;
31638;SDS011;18248;51.522;7.020;2023-07-20T15:58:35;2.40;;;0.80;;
31638;SDS011;18248;51.522;7.020;2023-07-20T16:01:34;1.00;;;0.68;;
31638;SDS011;18248;51.522;7.020;2023-07-20T16:04:33;2.08;;;0.70;;
31638;SDS011;18248;51.522;7.020;2023-07-20T16:07:31;3.45;;;0.80;;
31638;SDS011;18248;51.522;7.020;2023-07-20T16:10:31;2.33;;;0.82;;
31638;SDS011;18248;51.522;7.020;2023-07-20T16:13:30;1.42;;;0.70;;
31638;SDS011;18248;51.522;7.020;2023-07-20T16:16:29;4.25;;;0.70;;
31638;SDS011;18248;51.522;7.020;2023-07-20T16:19:31;1.00;;;0.60;;
31638;SDS011;18248;51.522;7.020;2023-07-20T16:22:29;1.48;;;0.70;;
31638;SDS011;18248;51.522;7.020;2023-07-20T16:25:28;1.63;;;0.57;;
31638;SDS011;18248;51.522;7.020;2023-07-20T16:28:26;1.42;;;0.60;;
31638;SDS011;18248;51.522;7.020;2023-07-20T16:31:25;2.15;;;0.80;;
31638;SDS011;18248;51.522;7.020;2023-07-20T16:34:24;2.22;;;0.65;;
31638;SDS011;18248;51.522;7.020;2023-07-20T16:37:22;1.02;;;0.50;;
31638;SDS011;18248;51.522;7.020;2023-07-20T16:40:22;0.90;;;0.50;;
31638;SDS011;18248;51.522;7.020;2023-07-20T16:43:22;2.63;;;0.55;;
31638;SDS011;18248;51.522;7.020;2023-07-20T16:46:22;3.55;;;0.57;;
31638;SDS011;18248;51.522;7.020;2023-07-20T16:49:20;2.13;;;0.80;;
31638;SDS011;18248;51.522;7.020;2023-07-20T16:52:19;0.50;;;0.47;;
31638;SDS011;18248;51.522;7.020;2023-07-20T16:55:17;2.55;;;0.90;;
31638;SDS011;18248;51.522;7.020;2023-07-20T16:58:21;2.10;;;0.63;;
31638;SDS011;18248;51.522;7.020;2023-07-20T17:01:22;1.10;;;0.63;;
31638;SDS011;18248;51.522;7.020;2023-07-20T17:04:20;2.67;;;0.70;;
31638;SDS011;18248;51.522;7.020;2023-07-20T17:07:19;3.15;;;0.60;;
31638;SDS011;18248;51.522;7.020;2023-07-20T17:10:17;1.42;;;0.60;;
31638;SDS011;18248;51.522;7.020;2023-07-20T17:13:16;5.97;;;0.50;;
31638;SDS011;18248;51.522;7.020;2023-07-20T17:16:14;0.95;;;0.50;;
31638;SDS011;18248;51.522;7.020;2023-07-20T17:19:14;1.25;;;0.70;;
31638;SDS011;18248;51.522;7.020;2023-07-20T17:22:12;1.90;;;0.63;;
31638;SDS011;18248;51.522;7.020;2023-07-20T17:25:11;1.88;;;0.80;;
31638;SDS011;18248;51.522;7.020;2023-07-20T17:28:10;3.28;;;0.60;;
31638;SDS011;18248;51.522;7.020;2023-07-20T17:31:08;1.65;;;0.63;;
31638;SDS011;18248;51.522;7.020;2023-07-20T17:34:07;2.78;;;0.60;;
31638;SDS011;18248;51.522;7.020;2023-07-20T17:37:06;6.13;;;0.68;;
31638;SDS011;18248;51.522;7.020;2023-07-20T17:40:08;1.27;;;0.63;;
31638;SDS011;18248;51.522;7.020;2023-07-20T17:43:07;1.13;;;0.55;;
31638;SDS011;18248;51.522;7.020;2023-07-20T17:46:07;1.80;;;0.60;;
31638;SDS011;18248;51.522;7.020;2023-07-20T17:49:06;0.60;;;0.43;;
31638;SDS011;18248;51.522;7.020;2023-07-20T17:52:04;1.77;;;0.50;;
31638;SDS011;18248;51.522;7.020;2023-07-20T17:55:03;3.08;;;0.60;;
31638;SDS011;18248;51.522;7.020;2023-07-20T17:58:02;1.40;;;0.50;;
31638;SDS011;18248;51.522;7.020;2023-07-20T18:01:01;1.27;;;0.70;;
31638;SDS011;18248;51.522;7.020;2023-07-20T18:04:00;1.25;;;0.50;;
31638;SDS011;18248;51.522;7.020;2023-07-20T18:06:58;1.13;;;0.70;;
31638;SDS011;18248;51.522;7.020;2023-07-20T18:09:57;3.22;;;0.50;;
31638;SDS011;18248;51.522;7.020;2023-07-20T18:12:55;1.17;;;0.60;;
31638;SDS011;18248;51.522;7.020;2023-07-20T18:15:54;1.95;;;0.82;;
31638;SDS011;18248;51.522;7.020;2023-07-20T18:18:56;1.40;;;0.73;;
31638;SDS011;18248;51.522;7.020;2023-07-20T18:21:55;2.40;;;0.80;;
31638;SDS011;18248;51.522;7.020;2023-07-20T18:24:53;1.15;;;0.63;;